Grande Italia — IBTF — position and weather

sailwx.info

Track history (hours):
 
Tides and Currents Weather Stations Pressure Air Temp Water Temp Dewpoint Dewpoint Depression Visibility Wind Speed Wind Dir Waves Ship Positions

Grande Italia

Last reported at 2017-Feb-20 14:27 UTC. Time now 2017-Feb-23 20:44 UTC.
Position N 37°45' E 024°22'.

Length 177 m; draft 7.5 m.

Type: Ship. MMSI: 247039300.

Date/timePositionNaut miles runAvg speedWind from/ knotsBaromVisibWave heightAir tempDewpointWater temp
2017-Feb-20 14:27N 37°45' E 024°22'1617.8
2017-Feb-20 13:33N 37°37' E 024°05'1817.9
2017-Feb-20 12:33N 37°40' E 023°43'1716.9
2017-Feb-20 11:33N 37°56' E 023°36'2 1.8
2017-Feb-20 10:32N 37°58' E 023°36'0 0.0
2017-Feb-20 09:32N 37°58' E 023°36'0 0.0
2017-Feb-20 08:32N 37°58' E 023°36'0 0.0
2017-Feb-20 07:32N 37°58' E 023°36'0 0.0
2017-Feb-20 06:32N 37°58' E 023°36'0 0.1
2017-Feb-20 05:34N 37°58' E 023°36'3 3.4
2017-Feb-20 04:34N 37°54' E 023°37'3 3.3
2017-Feb-20 03:33N 37°51' E 023°39'7 6.8
2017-Feb-20 02:34N 37°45' E 023°43'8 8.1
2017-Feb-20 01:34N 37°37' E 023°45'9 8.6
2017-Feb-20 00:33N 37°29' E 023°42'4813.8
2017-Feb-19 21:03N 36°43' E 023°24'62313.9
2017-Feb-18 00:25N 44°11' E 013°57'1315.6
2017-Feb-17 23:33N 44°22' E 013°46'1515.4
2017-Feb-17 22:33N 44°35' E 013°35'1515.1
2017-Feb-17 21:33N 44°48' E 013°23'1515.5
2017-Feb-17 20:33N 45°01' E 013°11'1515.5
2017-Feb-17 19:33N 45°15' E 013°02'1414.1
2017-Feb-17 18:33N 45°28' E 013°09'1615.6
2017-Feb-17 17:33N 45°36' E 013°27'1110.8
2017-Feb-17 16:33N 45°46' E 013°34'1 1.3
2017-Feb-17 15:26N 45°47' E 013°33'0 0.0
2017-Feb-17 14:32N 45°47' E 013°33'0 0.0
2017-Feb-17 13:32N 45°47' E 013°33'0 0.0
2017-Feb-17 12:32N 45°47' E 013°33'0 0.0
2017-Feb-17 11:29N 45°47' E 013°33'0 0.0
2017-Feb-17 10:29N 45°47' E 013°33'0 0.0
2017-Feb-17 09:32N 45°47' E 013°33'0 0.0
2017-Feb-17 08:29N 45°47' E 013°33'0 0.0
2017-Feb-17 07:32N 45°47' E 013°33'0 0.0
2017-Feb-17 06:32N 45°47' E 013°33'0 0.0
2017-Feb-17 05:32N 45°47' E 013°33'0 0.0
2017-Feb-17 04:32N 45°47' E 013°33'0 0.0
2017-Feb-17 03:26N 45°47' E 013°33'0 0.0
2017-Feb-17 02:29N 45°47' E 013°33'0 0.0
2017-Feb-17 01:32N 45°47' E 013°33'0 0.0
2017-Feb-17 00:29N 45°47' E 013°33'0 0.0
2017-Feb-16 23:23N 45°47' E 013°33'0 0.0
2017-Feb-16 22:32N 45°47' E 013°33'0 0.0
2017-Feb-16 21:23N 45°47' E 013°33'0 0.0
2017-Feb-16 20:26N 45°47' E 013°33'0 0.0
2017-Feb-16 19:32N 45°47' E 013°33'0 0.0
2017-Feb-16 18:32N 45°47' E 013°33'0 0.0
2017-Feb-16 17:29N 45°47' E 013°33'0 0.0
2017-Feb-16 16:32N 45°47' E 013°33'0 0.0
2017-Feb-16 13:33N 45°47' E 013°33'0 0.0
2017-Feb-16 12:33N 45°47' E 013°33'0 0.0
2017-Feb-16 11:30N 45°47' E 013°33'0 0.0
2017-Feb-16 10:33N 45°47' E 013°33'0 0.0
2017-Feb-16 09:33N 45°47' E 013°33'0 0.0
2017-Feb-16 08:33N 45°47' E 013°33'0 0.0
2017-Feb-16 07:33N 45°47' E 013°33'0 0.0
2017-Feb-16 06:24N 45°47' E 013°33'0 0.0
2017-Feb-16 05:33N 45°47' E 013°33'0 0.0
2017-Feb-16 04:30N 45°47' E 013°33'0 0.0
2017-Feb-16 03:18N 45°47' E 013°33'0 0.0
2017-Feb-16 02:24N 45°47' E 013°33'0 0.0
2017-Feb-16 01:30N 45°47' E 013°33'0 0.0
2017-Feb-16 00:30N 45°47' E 013°33'0 0.0
2017-Feb-15 23:33N 45°47' E 013°33'3 2.7
2017-Feb-15 22:33N 45°45' E 013°35'1312.8
2017-Feb-15 21:33N 45°33' E 013°43'1 1.1
2017-Feb-15 20:26N 45°33' E 013°44'0 0.0
2017-Feb-15 19:29N 45°33' E 013°44'0 0.0
2017-Feb-15 18:29N 45°33' E 013°44'0 0.0
2017-Feb-15 17:32N 45°33' E 013°44'0 0.0
2017-Feb-15 16:20N 45°33' E 013°44'0 0.0
2017-Feb-15 15:32N 45°33' E 013°44'0 0.0
2017-Feb-15 14:29N 45°33' E 013°44'3 2.8
2017-Feb-15 13:33N 45°34' E 013°41'5 4.6
2017-Feb-15 12:33N 45°35' E 013°34'6 5.8
2017-Feb-15 11:33N 45°32' E 013°27'1514.9
2017-Feb-15 10:33N 45°22' E 013°11'1616.2
2017-Feb-15 09:33N 45°06' E 013°10'1717.4
2017-Feb-15 08:33N 44°53' E 012°53'1817.7
2017-Feb-15 07:33N 44°41' E 012°35'1615.9
2017-Feb-15 06:33N 44°30' E 012°19'4 3.6
2017-Feb-15 05:23N 44°27' E 012°15'0 0.0
2017-Feb-15 04:32N 44°27' E 012°15'0 0.0
2017-Feb-15 02:17N 44°27' E 012°15'0 0.0
2017-Feb-14 17:21N 44°27' E 012°15'3 2.3
2017-Feb-14 16:12N 44°29' E 012°17'3 4.4
2017-Feb-14 15:26N 44°30' E 012°21'6 6.4
2017-Feb-14 14:33N 44°29' E 012°29'1817.9
2017-Feb-14 13:32N 44°22' E 012°52'1717.9
2017-Feb-14 12:33N 44°15' E 013°15'  
2017-Feb-11 06:27N 40°25' E 029°07'8 7.3
2017-Feb-11 05:20N 40°26' E 028°56'14 7.6
2017-Feb-11 03:30N 40°40' E 028°57'1818.5
2017-Feb-11 02:33N 40°44' E 029°20'1514.8
2017-Feb-11 01:31N 40°44' E 029°40'  
Track history (hours):
 
Tides and Currents Weather Stations Pressure Air Temp Water Temp Dewpoint Dewpoint Depression Visibility Wind Speed Wind Dir Waves Ship Positions

Grande Italia

Last reported at 2017-Feb-20 14:27 UTC. Time now 2017-Feb-23 20:44 UTC.
Position N 37°45' E 024°22'.

Length 177 m; draft 7.5 m.

Type: Ship. MMSI: 247039300.

Date/timePositionNaut miles runAvg speedWind from/ knotsBaromVisibWave heightAir tempDewpointWater temp
2017-Feb-20 14:27N 37°45' E 024°22'1617.8
2017-Feb-20 13:33N 37°37' E 024°05'1817.9
2017-Feb-20 12:33N 37°40' E 023°43'1716.9
2017-Feb-20 11:33N 37°56' E 023°36'2 1.8
2017-Feb-20 10:32N 37°58' E 023°36'0 0.0
2017-Feb-20 09:32N 37°58' E 023°36'0 0.0
2017-Feb-20 08:32N 37°58' E 023°36'0 0.0
2017-Feb-20 07:32N 37°58' E 023°36'0 0.0
2017-Feb-20 06:32N 37°58' E 023°36'0 0.1
2017-Feb-20 05:34N 37°58' E 023°36'3 3.4
2017-Feb-20 04:34N 37°54' E 023°37'3 3.3
2017-Feb-20 03:33N 37°51' E 023°39'7 6.8
2017-Feb-20 02:34N 37°45' E 023°43'8 8.1
2017-Feb-20 01:34N 37°37' E 023°45'9 8.6
2017-Feb-20 00:33N 37°29' E 023°42'4813.8
2017-Feb-19 21:03N 36°43' E 023°24'62313.9
2017-Feb-18 00:25N 44°11' E 013°57'1315.6
2017-Feb-17 23:33N 44°22' E 013°46'1515.4
2017-Feb-17 22:33N 44°35' E 013°35'1515.1
2017-Feb-17 21:33N 44°48' E 013°23'1515.5
2017-Feb-17 20:33N 45°01' E 013°11'1515.5
2017-Feb-17 19:33N 45°15' E 013°02'1414.1
2017-Feb-17 18:33N 45°28' E 013°09'1615.6
2017-Feb-17 17:33N 45°36' E 013°27'1110.8
2017-Feb-17 16:33N 45°46' E 013°34'1 1.3
2017-Feb-17 15:26N 45°47' E 013°33'0 0.0
2017-Feb-17 14:32N 45°47' E 013°33'0 0.0
2017-Feb-17 13:32N 45°47' E 013°33'0 0.0
2017-Feb-17 12:32N 45°47' E 013°33'0 0.0
2017-Feb-17 11:29N 45°47' E 013°33'0 0.0
2017-Feb-17 10:29N 45°47' E 013°33'0 0.0
2017-Feb-17 09:32N 45°47' E 013°33'0 0.0
2017-Feb-17 08:29N 45°47' E 013°33'0 0.0
2017-Feb-17 07:32N 45°47' E 013°33'0 0.0
2017-Feb-17 06:32N 45°47' E 013°33'0 0.0
2017-Feb-17 05:32N 45°47' E 013°33'0 0.0
2017-Feb-17 04:32N 45°47' E 013°33'0 0.0
2017-Feb-17 03:26N 45°47' E 013°33'0 0.0
2017-Feb-17 02:29N 45°47' E 013°33'0 0.0
2017-Feb-17 01:32N 45°47' E 013°33'0 0.0
2017-Feb-17 00:29N 45°47' E 013°33'0 0.0
2017-Feb-16 23:23N 45°47' E 013°33'0 0.0
2017-Feb-16 22:32N 45°47' E 013°33'0 0.0
2017-Feb-16 21:23N 45°47' E 013°33'0 0.0
2017-Feb-16 20:26N 45°47' E 013°33'0 0.0
2017-Feb-16 19:32N 45°47' E 013°33'0 0.0
2017-Feb-16 18:32N 45°47' E 013°33'0 0.0
2017-Feb-16 17:29N 45°47' E 013°33'0 0.0
2017-Feb-16 16:32N 45°47' E 013°33'0 0.0
2017-Feb-16 13:33N 45°47' E 013°33'0 0.0
2017-Feb-16 12:33N 45°47' E 013°33'0 0.0
2017-Feb-16 11:30N 45°47' E 013°33'0 0.0
2017-Feb-16 10:33N 45°47' E 013°33'0 0.0
2017-Feb-16 09:33N 45°47' E 013°33'0 0.0
2017-Feb-16 08:33N 45°47' E 013°33'0 0.0
2017-Feb-16 07:33N 45°47' E 013°33'0 0.0
2017-Feb-16 06:24N 45°47' E 013°33'0 0.0
2017-Feb-16 05:33N 45°47' E 013°33'0 0.0
2017-Feb-16 04:30N 45°47' E 013°33'0 0.0
2017-Feb-16 03:18N 45°47' E 013°33'0 0.0
2017-Feb-16 02:24N 45°47' E 013°33'0 0.0
2017-Feb-16 01:30N 45°47' E 013°33'0 0.0
2017-Feb-16 00:30N 45°47' E 013°33'0 0.0
2017-Feb-15 23:33N 45°47' E 013°33'3 2.7
2017-Feb-15 22:33N 45°45' E 013°35'1312.8
2017-Feb-15 21:33N 45°33' E 013°43'1 1.1
2017-Feb-15 20:26N 45°33' E 013°44'0 0.0
2017-Feb-15 19:29N 45°33' E 013°44'0 0.0
2017-Feb-15 18:29N 45°33' E 013°44'0 0.0
2017-Feb-15 17:32N 45°33' E 013°44'0 0.0
2017-Feb-15 16:20N 45°33' E 013°44'0 0.0
2017-Feb-15 15:32N 45°33' E 013°44'0 0.0
2017-Feb-15 14:29N 45°33' E 013°44'3 2.8
2017-Feb-15 13:33N 45°34' E 013°41'5 4.6
2017-Feb-15 12:33N 45°35' E 013°34'6 5.8
2017-Feb-15 11:33N 45°32' E 013°27'1514.9
2017-Feb-15 10:33N 45°22' E 013°11'1616.2
2017-Feb-15 09:33N 45°06' E 013°10'1717.4
2017-Feb-15 08:33N 44°53' E 012°53'1817.7
2017-Feb-15 07:33N 44°41' E 012°35'1615.9
2017-Feb-15 06:33N 44°30' E 012°19'4 3.6
2017-Feb-15 05:23N 44°27' E 012°15'0 0.0
2017-Feb-15 04:32N 44°27' E 012°15'0 0.0
2017-Feb-15 02:17N 44°27' E 012°15'0 0.0
2017-Feb-14 17:21N 44°27' E 012°15'3 2.3
2017-Feb-14 16:12N 44°29' E 012°17'3 4.4
2017-Feb-14 15:26N 44°30' E 012°21'6 6.4
2017-Feb-14 14:33N 44°29' E 012°29'1817.9
2017-Feb-14 13:32N 44°22' E 012°52'1717.9
2017-Feb-14 12:33N 44°15' E 013°15'  
2017-Feb-11 06:27N 40°25' E 029°07'8 7.3
2017-Feb-11 05:20N 40°26' E 028°56'14 7.6
2017-Feb-11 03:30N 40°40' E 028°57'1818.5
2017-Feb-11 02:33N 40°44' E 029°20'1514.8
2017-Feb-11 01:31N 40°44' E 029°40'  

Dump ship's entire track history